createdAt,value
2023-01-18T00:02:07.831Z,-3.22
2023-01-18T00:04:34.295Z,-3.23
2023-01-18T00:07:00.776Z,-3.18
2023-01-18T00:09:27.246Z,-3.21
2023-01-18T00:11:53.769Z,-3.25
2023-01-18T00:14:20.240Z,-3.29
2023-01-18T00:16:46.670Z,-3.34
2023-01-18T00:19:14.026Z,-3.32
2023-01-18T00:21:40.923Z,-3.31
2023-01-18T00:24:11.022Z,-3.35
2023-01-18T00:26:38.086Z,-3.34
2023-01-18T00:29:05.060Z,-3.33
2023-01-18T00:31:31.757Z,-3.32
2023-01-18T00:33:58.303Z,-3.30
2023-01-18T00:36:24.835Z,-3.33
2023-01-18T00:38:52.254Z,-3.25
2023-01-18T00:41:20.174Z,-3.21
2023-01-18T00:43:46.662Z,-3.20
2023-01-18T00:46:16.278Z,-3.17
2023-01-18T00:48:44.101Z,-3.19
2023-01-18T00:51:14.064Z,-3.21
2023-01-18T00:53:41.139Z,-3.22
2023-01-18T00:56:09.691Z,-3.23
2023-01-18T00:58:37.563Z,-3.24
2023-01-18T01:01:06.374Z,-3.25
2023-01-18T01:03:52.132Z,-3.24
2023-01-18T01:06:43.802Z,-3.20
2023-01-18T01:09:21.078Z,-3.15
2023-01-18T01:12:07.174Z,-3.17
2023-01-18T01:14:54.987Z,-3.20
2023-01-18T01:17:40.183Z,-3.15
2023-01-18T01:20:26.594Z,-3.17
2023-01-18T01:23:11.406Z,-3.17
2023-01-18T01:25:57.186Z,-3.20
2023-01-18T01:28:24.113Z,-3.17
2023-01-18T01:30:50.726Z,-3.17
2023-01-18T01:33:18.002Z,-3.15
2023-01-18T01:35:44.557Z,-3.13
2023-01-18T01:38:11.176Z,-3.13
2023-01-18T01:40:37.597Z,-3.12
2023-01-18T01:43:04.031Z,-3.11
2023-01-18T01:45:32.154Z,-3.15
2023-01-18T01:47:59.412Z,-3.12
2023-01-18T01:50:31.344Z,-3.11
2023-01-18T01:52:58.512Z,-3.13
2023-01-18T01:55:30.196Z,-3.07
2023-01-18T01:58:00.929Z,-3.07
2023-01-18T02:00:27.567Z,-3.08
2023-01-18T02:03:00.732Z,-3.03
2023-01-18T02:09:14.832Z,-3.09
2023-01-18T02:11:42.299Z,-3.01
2023-01-18T02:14:12.866Z,-3.13
2023-01-18T02:17:10.361Z,-3.08
2023-01-18T02:20:01.895Z,-3.13
2023-01-18T02:22:48.495Z,-3.15
2023-01-18T02:25:42.383Z,-3.11
2023-01-18T02:28:10.420Z,-3.12
2023-01-18T02:31:18.046Z,-3.20
2023-01-18T02:34:02.297Z,-3.19
2023-01-18T02:36:38.700Z,-3.18
2023-01-18T02:39:23.563Z,-3.20
2023-01-18T02:42:22.717Z,-3.17
2023-01-18T02:45:08.010Z,-3.14
2023-01-18T02:47:35.202Z,-3.18
2023-01-18T02:50:03.309Z,-3.12
2023-01-18T02:52:41.038Z,-3.07
2023-01-18T02:55:24.419Z,-3.01
2023-01-18T02:57:54.983Z,-3.02
2023-01-18T03:00:23.389Z,-3.09
2023-01-18T03:02:51.793Z,-3.10
2023-01-18T03:05:19.195Z,-3.12
2023-01-18T03:07:58.313Z,-3.09
2023-01-18T03:10:31.078Z,-3.08
2023-01-18T03:13:00.084Z,-3.08
2023-01-18T03:15:56.355Z,-3.08
2023-01-18T03:18:33.501Z,-3.12
2023-01-18T03:21:05.541Z,-3.08
2023-01-18T03:23:42.503Z,-2.97
2023-01-18T03:26:14.590Z,-2.95
2023-01-18T03:29:06.162Z,-2.97
2023-01-18T03:32:03.409Z,-3.02
2023-01-18T03:35:08.039Z,-2.96
2023-01-18T03:37:40.752Z,-2.96
2023-01-18T03:40:12.171Z,-3.01
2023-01-18T03:42:51.915Z,-2.99
2023-01-18T03:45:31.076Z,-2.95
2023-01-18T03:47:57.632Z,-2.87
2023-01-18T03:50:32.078Z,-2.82
2023-01-18T03:53:04.624Z,-2.92
2023-01-18T03:55:56.892Z,-2.90
2023-01-18T03:58:32.364Z,-2.89
2023-01-18T04:00:59.132Z,-2.95
2023-01-18T04:03:25.671Z,-2.95
2023-01-18T04:05:52.421Z,-3.02
2023-01-18T04:08:21.879Z,-2.96
2023-01-18T04:10:48.473Z,-2.97
2023-01-18T04:13:14.985Z,-3.01
2023-01-18T04:15:41.661Z,-2.95
2023-01-18T04:18:08.160Z,-2.95
2023-01-18T04:20:34.640Z,-2.94
2023-01-18T04:23:01.411Z,-2.96
2023-01-18T04:25:27.996Z,-2.99
2023-01-18T04:27:54.480Z,-2.95
2023-01-18T04:30:21.454Z,-2.95
2023-01-18T04:32:47.901Z,-2.92
2023-01-18T04:35:14.432Z,-2.92
2023-01-18T04:37:41.373Z,-2.97
2023-01-18T04:40:08.721Z,-2.98
2023-01-18T04:42:35.221Z,-2.95
2023-01-18T04:45:01.862Z,-2.90
2023-01-18T04:47:29.060Z,-2.87
2023-01-18T04:49:59.060Z,-2.84
2023-01-18T04:52:26.717Z,-2.88
2023-01-18T04:54:53.260Z,-2.84
2023-01-18T04:57:19.655Z,-2.86
2023-01-18T04:59:46.192Z,-2.79
2023-01-18T05:02:15.128Z,-2.78
2023-01-18T05:04:42.092Z,-2.77
2023-01-18T05:07:08.591Z,-2.76
2023-01-18T05:09:35.076Z,-2.78
2023-01-18T05:12:01.838Z,-2.65
2023-01-18T05:14:28.383Z,-2.62
2023-01-18T05:16:54.862Z,-2.60
2023-01-18T05:19:21.360Z,-2.51
2023-01-18T05:21:47.937Z,-2.48
2023-01-18T05:24:14.393Z,-2.54
2023-01-18T05:26:40.874Z,-2.51
2023-01-18T05:29:07.383Z,-2.61
2023-01-18T05:31:53.329Z,-2.65
2023-01-18T05:34:19.976Z,-2.61
2023-01-18T05:36:47.619Z,-2.59
2023-01-18T05:39:14.246Z,-2.62
2023-01-18T05:41:40.662Z,-2.56
2023-01-18T05:44:07.158Z,-2.53
2023-01-18T05:46:33.676Z,-2.48
2023-01-18T05:49:00.057Z,-2.49
2023-01-18T05:51:26.610Z,-2.47
2023-01-18T05:53:53.149Z,-2.52
2023-01-18T05:56:19.647Z,-2.54
2023-01-18T05:58:46.246Z,-2.55
2023-01-18T06:01:13.148Z,-2.59
2023-01-18T06:03:40.650Z,-2.56
2023-01-18T06:06:07.419Z,-2.56
2023-01-18T06:08:33.945Z,-2.59
2023-01-18T06:11:00.927Z,-2.55
2023-01-18T06:13:30.155Z,-2.52
2023-01-18T06:15:58.180Z,-2.55
2023-01-18T06:18:26.429Z,-2.59
2023-01-18T06:20:54.791Z,-2.53
2023-01-18T06:23:21.684Z,-2.49
2023-01-18T06:25:48.128Z,-2.57
2023-01-18T06:28:14.541Z,-2.42
2023-01-18T06:30:42.938Z,-2.44
2023-01-18T06:33:10.170Z,-2.40
2023-01-18T06:35:37.234Z,-2.48
2023-01-18T06:38:04.735Z,-2.54
2023-01-18T06:40:31.321Z,-2.56
2023-01-18T06:42:58.322Z,-2.56
2023-01-18T06:45:25.912Z,-2.55
2023-01-18T06:47:53.208Z,-2.51
2023-01-18T06:50:20.227Z,-2.53
2023-01-18T06:52:46.835Z,-2.59
2023-01-18T06:55:14.443Z,-2.56
2023-01-18T06:57:41.363Z,-2.55
2023-01-18T07:00:09.409Z,-2.49
2023-01-18T07:02:36.389Z,-2.61
2023-01-18T07:05:04.127Z,-2.59
2023-01-18T07:07:31.038Z,-2.59
2023-01-18T07:09:57.621Z,-2.60
2023-01-18T07:12:24.129Z,-2.58
2023-01-18T07:14:51.138Z,-2.66
2023-01-18T07:17:17.594Z,-2.70
2023-01-18T07:19:44.796Z,-2.62
2023-01-18T07:22:12.258Z,-2.61
2023-01-18T07:24:38.865Z,-2.62
2023-01-18T07:27:05.396Z,-2.60
2023-01-18T07:29:31.942Z,-2.65
2023-01-18T07:31:58.443Z,-2.58
2023-01-18T07:34:25.074Z,-2.54
2023-01-18T07:36:51.578Z,-2.51
2023-01-18T07:39:18.077Z,-2.45
2023-01-18T07:41:44.559Z,-2.55
2023-01-18T07:44:11.767Z,-2.51
2023-01-18T07:46:38.581Z,-2.49
2023-01-18T07:49:05.850Z,-2.47
2023-01-18T07:51:33.490Z,-2.44
2023-01-18T07:53:59.992Z,-2.53
2023-01-18T07:56:27.145Z,-2.52
2023-01-18T07:58:53.741Z,-2.46
2023-01-18T08:01:22.554Z,-2.50
2023-01-18T08:03:50.329Z,-2.49
2023-01-18T08:06:22.408Z,-2.40
2023-01-18T08:08:48.985Z,-2.36
2023-01-18T08:11:15.454Z,-2.33
2023-01-18T08:13:41.905Z,-2.37
2023-01-18T08:16:11.396Z,-2.30
2023-01-18T08:18:38.446Z,-2.31
2023-01-18T08:21:05.090Z,-2.28
2023-01-18T08:23:31.578Z,-2.16
2023-01-18T08:26:02.120Z,-2.10
2023-01-18T08:28:28.657Z,-2.17
2023-01-18T08:31:09.872Z,-2.18
2023-01-18T08:33:41.569Z,-2.09
2023-01-18T08:36:11.458Z,-2.02
2023-01-18T08:38:38.095Z,-2.08
2023-01-18T08:41:05.113Z,-2.01
2023-01-18T08:43:31.585Z,-2.00
2023-01-18T08:45:58.021Z,-2.00
2023-01-18T08:48:24.916Z,-1.94
2023-01-18T08:50:51.809Z,-1.89
2023-01-18T08:53:18.348Z,-1.89
2023-01-18T08:55:44.853Z,-1.88
2023-01-18T08:58:12.166Z,-1.84
2023-01-18T09:00:38.724Z,-1.76
2023-01-18T09:03:06.752Z,-1.70
2023-01-18T09:05:35.337Z,-1.70
2023-01-18T09:08:02.029Z,-1.69
2023-01-18T09:10:28.610Z,-1.69
2023-01-18T09:12:55.670Z,-1.71
2023-01-18T09:15:22.212Z,-1.73
2023-01-18T09:17:48.664Z,-1.68
2023-01-18T09:20:18.523Z,-1.72
2023-01-18T09:22:47.640Z,-1.64
2023-01-18T09:25:14.320Z,-1.62
2023-01-18T09:27:40.849Z,-1.66
2023-01-18T09:30:09.588Z,-1.61
2023-01-18T09:32:36.125Z,-1.55
2023-01-18T09:35:02.930Z,-1.49
2023-01-18T09:37:29.522Z,-1.36
2023-01-18T09:39:56.112Z,-1.29
2023-01-18T09:42:29.828Z,-1.42
2023-01-18T09:45:00.729Z,-1.30
2023-01-18T09:47:30.540Z,-1.28
2023-01-18T09:49:59.353Z,-1.25
2023-01-18T09:52:51.598Z,-1.07
2023-01-18T09:55:42.685Z,-1.04
2023-01-18T09:58:19.180Z,-0.91
2023-01-18T10:00:48.568Z,-0.96
2023-01-18T10:03:28.437Z,-0.84
2023-01-18T10:06:08.870Z,-0.79
2023-01-18T10:08:59.641Z,-0.67
2023-01-18T10:11:50.487Z,-0.57
2023-01-18T10:14:40.447Z,-0.54
2023-01-18T10:17:14.590Z,-0.58
2023-01-18T10:19:41.287Z,-0.73
2023-01-18T10:22:33.380Z,-0.47
2023-01-18T10:25:05.460Z,-0.42
2023-01-18T10:28:12.903Z,-0.46
2023-01-18T10:30:58.235Z,-0.38
2023-01-18T10:33:33.320Z,-0.38
2023-01-18T10:36:22.173Z,-0.32
2023-01-18T10:38:52.122Z,-0.52
2023-01-18T10:41:22.127Z,-0.56
2023-01-18T10:43:48.742Z,-0.67
2023-01-18T10:46:18.804Z,-0.64
2023-01-18T10:48:53.680Z,-0.66
2023-01-18T10:51:37.533Z,-0.64
2023-01-18T10:54:26.129Z,-0.52
2023-01-18T10:57:04.606Z,-0.64
2023-01-18T10:59:39.684Z,-0.64
2023-01-18T11:02:20.998Z,-0.64
2023-01-18T11:04:56.671Z,-0.60
2023-01-18T11:07:25.670Z,-0.54
2023-01-18T11:09:55.643Z,-0.66
2023-01-18T11:12:37.150Z,-0.72
2023-01-18T11:15:15.798Z,-0.65
2023-01-18T11:17:58.542Z,-0.61
2023-01-18T11:20:30.844Z,-0.59
2023-01-18T11:23:00.881Z,-0.66
2023-01-18T11:25:37.134Z,-0.46
2023-01-18T11:28:07.414Z,-0.38
2023-01-18T11:30:34.843Z,-0.55
2023-01-18T11:33:01.533Z,-0.61
2023-01-18T11:35:34.164Z,-0.57
2023-01-18T11:38:02.953Z,-0.54
2023-01-18T11:40:32.291Z,-0.59
2023-01-18T11:43:04.343Z,-0.67
2023-01-18T11:45:40.861Z,-0.59
2023-01-18T11:48:13.289Z,-0.62
2023-01-18T11:50:54.207Z,-0.61
2023-01-18T11:54:02.089Z,-0.54
2023-01-18T11:56:42.426Z,-0.49
2023-01-18T11:59:17.768Z,-0.59
2023-01-18T12:01:56.397Z,-0.50
2023-01-18T12:04:39.167Z,-0.60
2023-01-18T12:07:32.151Z,-0.70
2023-01-18T12:10:01.322Z,-0.81
2023-01-18T12:12:55.925Z,-0.80
2023-01-18T12:16:02.170Z,-0.73
2023-01-18T12:18:47.733Z,-0.90
2023-01-18T12:21:24.153Z,-0.91
2023-01-18T12:24:16.448Z,-0.86
2023-01-18T12:27:00.242Z,-0.94
2023-01-18T12:29:58.010Z,-0.84
2023-01-18T12:32:43.740Z,-0.87
2023-01-18T12:35:23.747Z,-0.96
2023-01-18T12:37:50.984Z,-0.93
2023-01-18T12:40:39.032Z,-0.85
2023-01-18T12:43:27.141Z,-0.90
2023-01-18T12:46:07.421Z,-0.84
2023-01-18T12:48:53.139Z,-0.78
2023-01-18T12:51:23.879Z,-0.88
2023-01-18T12:54:26.794Z,-0.70
2023-01-18T12:56:56.388Z,-0.90
2023-01-18T12:59:35.777Z,-0.87
2023-01-18T13:02:22.295Z,-0.95
2023-01-18T13:04:55.425Z,-0.91
2023-01-18T13:07:30.016Z,-0.86
2023-01-18T13:09:57.472Z,-0.86
2023-01-18T13:12:25.917Z,-0.91
2023-01-18T13:15:01.815Z,-0.82
2023-01-18T13:17:47.288Z,-0.87
2023-01-18T13:20:29.591Z,-0.92
2023-01-18T13:22:58.896Z,-0.94
2023-01-18T13:25:40.592Z,-0.82
2023-01-18T13:28:18.052Z,-0.98
2023-01-18T13:30:56.522Z,-0.94
2023-01-18T13:33:26.982Z,-0.88
2023-01-18T13:35:56.416Z,-0.85
2023-01-18T13:38:40.096Z,-0.97
2023-01-18T13:41:11.853Z,-0.94
2023-01-18T13:43:38.453Z,-0.83
2023-01-18T13:46:07.777Z,-0.96
2023-01-18T13:48:55.452Z,-1.00
2023-01-18T13:51:40.341Z,-1.07
2023-01-18T13:54:18.647Z,-0.99
2023-01-18T13:57:05.517Z,-1.04
2023-01-18T13:59:35.591Z,-1.00
2023-01-18T14:02:17.356Z,-1.07
2023-01-18T14:04:43.996Z,-1.09
2023-01-18T14:07:23.044Z,-1.19
2023-01-18T14:09:50.802Z,-1.17
2023-01-18T14:12:50.767Z,-1.14
2023-01-18T14:15:30.451Z,-1.27
2023-01-18T14:17:59.212Z,-1.19
2023-01-18T14:20:45.297Z,-1.19
2023-01-18T14:23:39.284Z,-1.17
2023-01-18T14:26:12.075Z,-1.17
2023-01-18T14:28:48.020Z,-1.22
2023-01-18T14:31:20.991Z,-1.30
2023-01-18T14:33:47.841Z,-1.26
2023-01-18T14:36:26.090Z,-1.28
2023-01-18T14:39:16.270Z,-1.28
2023-01-18T14:41:49.753Z,-1.26
2023-01-18T14:44:56.809Z,-1.29
2023-01-18T14:47:28.278Z,-1.26
2023-01-18T14:49:55.723Z,-1.34
2023-01-18T14:52:27.498Z,-1.25
2023-01-18T14:54:55.811Z,-1.20
2023-01-18T14:57:24.012Z,-1.34
2023-01-18T15:00:08.032Z,-1.30
2023-01-18T15:02:38.792Z,-1.29
2023-01-18T15:05:17.231Z,-1.30
2023-01-18T15:07:46.410Z,-1.29
2023-01-18T15:10:18.684Z,-1.30
2023-01-18T15:12:49.562Z,-1.25
2023-01-18T15:15:26.093Z,-1.26
2023-01-18T15:17:56.483Z,-1.31
2023-01-18T15:20:23.142Z,-1.24
2023-01-18T15:22:51.011Z,-1.23
2023-01-18T15:25:24.249Z,-1.26
2023-01-18T15:27:52.109Z,-1.21
2023-01-18T15:30:22.092Z,-1.22
2023-01-18T15:32:52.949Z,-1.21
2023-01-18T15:35:22.685Z,-1.29
2023-01-18T15:37:49.275Z,-1.18
2023-01-18T15:40:15.903Z,-1.22
2023-01-18T15:42:43.885Z,-1.24
2023-01-18T15:45:19.590Z,-1.17
2023-01-18T15:47:50.163Z,-1.16
2023-01-18T15:50:22.298Z,-1.14
2023-01-18T15:53:06.321Z,-1.12
2023-01-18T15:55:58.423Z,-1.18
2023-01-18T15:58:40.802Z,-1.33
2023-01-18T16:01:13.110Z,-1.27
2023-01-18T16:03:50.093Z,-1.24
2023-01-18T16:06:31.947Z,-1.22
2023-01-18T16:09:21.008Z,-1.28
2023-01-18T16:11:52.722Z,-1.32
2023-01-18T16:14:27.833Z,-1.27
2023-01-18T16:17:20.816Z,-1.34
2023-01-18T16:19:53.646Z,-1.32
2023-01-18T16:22:26.288Z,-1.42
2023-01-18T16:24:56.598Z,-1.41
2023-01-18T16:27:27.647Z,-1.36
2023-01-18T16:30:05.393Z,-1.39
2023-01-18T16:32:34.781Z,-1.40
2023-01-18T16:35:21.054Z,-1.39
2023-01-18T16:37:48.918Z,-1.39
2023-01-18T16:40:23.396Z,-1.54
2023-01-18T16:43:01.375Z,-1.55
2023-01-18T16:45:30.082Z,-1.48
2023-01-18T16:47:56.675Z,-1.61
2023-01-18T16:50:23.506Z,-1.63
2023-01-18T16:52:50.029Z,-1.62
2023-01-18T16:55:17.955Z,-1.67
2023-01-18T16:57:44.799Z,-1.71
2023-01-18T17:00:24.076Z,-1.65
2023-01-18T17:02:50.644Z,-1.69
2023-01-18T17:05:17.478Z,-1.65
2023-01-18T17:07:44.045Z,-1.77
2023-01-18T17:10:26.099Z,-1.84
2023-01-18T17:12:52.683Z,-1.72
2023-01-18T17:15:20.239Z,-1.80
2023-01-18T17:17:47.505Z,-1.78
2023-01-18T17:20:21.049Z,-1.78
2023-01-18T17:22:47.557Z,-1.82
2023-01-18T17:25:15.291Z,-1.86
2023-01-18T17:27:42.105Z,-1.92
2023-01-18T17:30:10.469Z,-1.91
2023-01-18T17:32:37.089Z,-1.98
2023-01-18T17:35:05.693Z,-1.89
2023-01-18T17:37:34.098Z,-1.85
2023-01-18T17:40:16.349Z,-1.84
2023-01-18T17:42:44.723Z,-1.88
2023-01-18T17:45:14.335Z,-1.82
2023-01-18T17:47:42.916Z,-1.81
2023-01-18T17:50:12.142Z,-1.93
2023-01-18T17:52:40.410Z,-2.08
2023-01-18T17:55:10.355Z,-2.10
2023-01-18T17:57:36.949Z,-2.07
2023-01-18T18:00:04.824Z,-2.06
2023-01-18T18:02:31.293Z,-2.06
2023-01-18T18:04:59.361Z,-2.14
2023-01-18T18:07:26.397Z,-2.17
2023-01-18T18:09:58.118Z,-2.18
2023-01-18T18:12:24.552Z,-2.18
2023-01-18T18:14:53.289Z,-2.23
2023-01-18T18:17:20.031Z,-2.25
2023-01-18T18:19:46.467Z,-2.43
2023-01-18T18:22:12.928Z,-2.40
2023-01-18T18:24:39.559Z,-2.56
2023-01-18T18:27:06.124Z,-2.61
2023-01-18T18:29:33.179Z,-2.56
2023-01-18T18:31:59.708Z,-2.53
2023-01-18T18:34:26.233Z,-2.55
2023-01-18T18:36:52.697Z,-2.58
2023-01-18T18:39:19.207Z,-2.53
2023-01-18T18:41:48.289Z,-2.51
2023-01-18T18:44:15.071Z,-2.57
2023-01-18T18:46:42.026Z,-2.72
2023-01-18T18:49:08.535Z,-2.58
2023-01-18T18:51:37.921Z,-2.60
2023-01-18T18:54:05.002Z,-2.62
2023-01-18T18:56:31.866Z,-2.59
2023-01-18T18:58:58.428Z,-2.66
2023-01-18T19:01:29.205Z,-2.63
2023-01-18T19:03:58.484Z,-2.62
2023-01-18T19:06:25.841Z,-2.67
2023-01-18T19:08:52.407Z,-2.66
2023-01-18T19:11:18.945Z,-2.73
2023-01-18T19:13:46.336Z,-2.74
2023-01-18T19:16:14.007Z,-2.73
2023-01-18T19:18:41.179Z,-2.74
2023-01-18T19:21:07.729Z,-2.71
2023-01-18T19:23:34.551Z,-2.78
2023-01-18T19:26:01.164Z,-2.76
2023-01-18T19:28:27.739Z,-2.78
2023-01-18T19:30:54.928Z,-2.75
2023-01-18T19:33:21.433Z,-2.78
2023-01-18T19:35:47.863Z,-2.83
2023-01-18T19:38:14.909Z,-2.91
2023-01-18T19:40:41.949Z,-2.88
2023-01-18T19:43:08.425Z,-2.94
2023-01-18T19:45:37.694Z,-2.97
2023-01-18T19:48:05.101Z,-3.00
2023-01-18T19:50:31.901Z,-3.02
2023-01-18T19:52:58.794Z,-3.09
2023-01-18T19:55:25.596Z,-3.12
2023-01-18T19:57:55.156Z,-3.13
2023-01-18T20:00:21.803Z,-3.18
2023-01-18T20:02:48.396Z,-3.17
2023-01-18T20:05:14.987Z,-3.23
2023-01-18T20:07:41.465Z,-3.29
2023-01-18T20:10:08.382Z,-3.29
2023-01-18T20:12:35.040Z,-3.30
2023-01-18T20:15:01.702Z,-3.37
2023-01-18T20:17:28.196Z,-3.37
2023-01-18T20:19:54.741Z,-3.38
2023-01-18T20:22:22.497Z,-3.41
2023-01-18T20:24:49.298Z,-3.45
2023-01-18T20:27:17.329Z,-3.48
2023-01-18T20:29:44.906Z,-3.45
2023-01-18T20:32:17.128Z,-3.49
2023-01-18T20:34:46.433Z,-3.51
2023-01-18T20:37:13.704Z,-3.49
2023-01-18T20:39:40.244Z,-3.54
2023-01-18T20:42:06.819Z,-3.54
2023-01-18T20:44:33.396Z,-3.62
2023-01-18T20:46:59.911Z,-3.65
2023-01-18T20:49:37.296Z,-3.62
2023-01-18T20:52:05.115Z,-3.63
2023-01-18T20:54:31.618Z,-3.61
2023-01-18T20:56:58.818Z,-3.63
2023-01-18T20:59:25.630Z,-3.65
2023-01-18T21:01:52.992Z,-3.65
2023-01-18T21:04:22.372Z,-3.69
2023-01-18T21:06:49.815Z,-3.75
2023-01-18T21:09:16.940Z,-3.78
2023-01-18T21:11:43.807Z,-3.77
2023-01-18T21:14:10.387Z,-3.84
2023-01-18T21:16:37.009Z,-3.79
2023-01-18T21:19:03.640Z,-3.81
2023-01-18T21:21:31.772Z,-3.86
2023-01-18T21:23:58.645Z,-3.87
2023-01-18T21:26:25.201Z,-3.92
2023-01-18T21:28:51.677Z,-3.91
2023-01-18T21:31:18.305Z,-3.90
2023-01-18T21:33:44.961Z,-4.00
2023-01-18T21:36:17.619Z,-3.97
2023-01-18T21:38:44.598Z,-4.03
2023-01-18T21:41:30.031Z,-4.08
2023-01-18T21:44:15.436Z,-4.02
2023-01-18T21:46:49.705Z,-4.09
2023-01-18T21:49:52.194Z,-4.02
2023-01-18T21:52:39.665Z,-4.13
2023-01-18T21:55:06.264Z,-4.09
2023-01-18T21:57:32.706Z,-4.22
2023-01-18T21:59:59.124Z,-4.14
2023-01-18T22:02:25.773Z,-4.20
2023-01-18T22:05:01.931Z,-4.19
2023-01-18T22:07:30.243Z,-4.20
2023-01-18T22:10:06.105Z,-4.27
2023-01-18T22:12:35.543Z,-4.27
2023-01-18T22:15:03.034Z,-4.29
2023-01-18T22:17:29.864Z,-4.34
2023-01-18T22:19:56.517Z,-4.34
2023-01-18T22:22:22.965Z,-4.25
2023-01-18T22:24:49.630Z,-4.46
2023-01-18T22:27:16.193Z,-4.39
2023-01-18T22:29:42.799Z,-4.42
2023-01-18T22:32:09.332Z,-4.47
2023-01-18T22:34:36.341Z,-4.46
2023-01-18T22:37:03.292Z,-4.50
2023-01-18T22:39:29.943Z,-4.42
2023-01-18T22:41:56.425Z,-4.47
2023-01-18T22:44:23.129Z,-4.52
2023-01-18T22:46:49.618Z,-4.57
2023-01-18T22:49:16.110Z,-4.59
2023-01-18T22:51:42.547Z,-4.56
2023-01-18T22:54:09.063Z,-4.59
2023-01-18T22:56:35.742Z,-4.60
2023-01-18T22:59:02.274Z,-4.60
2023-01-18T23:01:31.453Z,-4.71
2023-01-18T23:04:00.265Z,-4.72
2023-01-18T23:06:28.143Z,-4.76
2023-01-18T23:08:55.892Z,-4.69
2023-01-18T23:11:25.430Z,-4.68
2023-01-18T23:14:15.912Z,-4.77
2023-01-18T23:17:02.030Z,-4.77
2023-01-18T23:19:30.447Z,-4.72
2023-01-18T23:21:57.751Z,-4.71
2023-01-18T23:24:24.442Z,-4.81
2023-01-18T23:26:51.935Z,-4.76
2023-01-18T23:29:18.953Z,-4.79
2023-01-18T23:31:46.703Z,-4.83
2023-01-18T23:34:13.280Z,-4.83
2023-01-18T23:36:39.847Z,-4.85
2023-01-18T23:39:25.142Z,-4.83
2023-01-18T23:42:10.371Z,-4.76
2023-01-18T23:44:55.625Z,-4.80
2023-01-18T23:47:41.006Z,-4.78
2023-01-18T23:50:26.565Z,-4.80
2023-01-18T23:53:11.855Z,-4.85
2023-01-18T23:55:38.389Z,-4.93
2023-01-18T23:58:04.923Z,-4.96
